Time;durP1;ratioP1;P1;durP2;ratioP2;P2;SDS_P1;SDS_P2;PMS_P1;PMS_P2;Temp;Humidity;BMP_temperature;BMP_pressure;BME280_temperature;BME280_humidity;BME280_pressure;Samples;Min_cycle;Max_cycle;Signal;HPM_P1;HPM_P2
2023/03/08 00:00:34;;;;;;;0.17;0.17;;;;;;;1.89;71.18;100181.97;5004336;28;20033;-81
2023/03/08 00:03:01;;;;;;;0.13;0.13;;;;;;;1.90;71.11;100191.56;5010041;28;20076;-78
2023/03/08 00:05:27;;;;;;;0.20;0.20;;;;;;;1.90;71.12;100199.38;5012381;28;20069;-79
2023/03/08 00:07:54;;;;;;;0.10;0.10;;;;;;;1.89;71.18;100189.78;5016340;28;20547;-79
2023/03/08 00:10:21;;;;;;;0.10;0.10;;;;;;;1.90;71.08;100182.84;5015476;28;20030;-81
2023/03/08 00:12:47;;;;;;;0.20;0.20;;;;;;;1.91;71.32;100180.25;5006356;28;20031;-81
2023/03/08 00:15:14;;;;;;;0.20;0.20;;;;;;;1.96;71.29;100182.00;5007737;28;20032;-83
2023/03/08 00:17:40;;;;;;;0.13;0.13;;;;;;;1.98;71.50;100177.66;5003991;28;20018;-81
2023/03/08 00:20:09;;;;;;;0.43;0.43;;;;;;;2.00;71.25;100179.41;5005961;28;20037;-80
2023/03/08 00:22:36;;;;;;;0.10;0.10;;;;;;;2.03;71.42;100178.53;5012009;28;20085;-80
2023/03/08 00:25:03;;;;;;;0.20;0.20;;;;;;;2.06;71.31;100183.81;5012227;28;20026;-81
2023/03/08 00:27:29;;;;;;;0.20;0.20;;;;;;;2.10;71.44;100173.34;5014265;28;20057;-81
2023/03/08 00:29:55;;;;;;;0.20;0.20;;;;;;;2.17;71.42;100183.81;5018666;28;20030;-82
2023/03/08 00:32:23;;;;;;;0.10;0.10;;;;;;;2.20;71.41;100186.47;5014718;28;20034;-79
2023/03/08 00:34:50;;;;;;;0.10;0.10;;;;;;;2.20;71.35;100189.94;5014448;28;20034;-82
2023/03/08 00:37:16;;;;;;;0.10;0.10;;;;;;;2.18;71.41;100202.16;5014916;28;20038;-81
2023/03/08 00:39:42;;;;;;;0.10;0.10;;;;;;;2.29;71.89;100188.22;5012688;28;20041;-81
2023/03/08 00:42:09;;;;;;;0.20;0.20;;;;;;;2.37;71.64;100181.31;5014375;28;20032;-81
2023/03/08 00:44:35;;;;;;;0.17;0.17;;;;;;;2.43;71.75;100169.09;5016161;28;20057;-81
2023/03/08 00:47:01;;;;;;;0.20;0.20;;;;;;;2.49;72.23;100155.16;5015541;28;20034;-82
2023/03/08 00:49:27;;;;;;;0.30;0.30;;;;;;;2.56;71.84;100146.44;5009874;28;20030;-82
2023/03/08 00:51:53;;;;;;;0.20;0.20;;;;;;;2.60;72.02;100144.72;4998837;28;20034;-82
2023/03/08 00:54:19;;;;;;;0.10;0.10;;;;;;;2.64;71.83;100146.50;4984959;28;20053;-82
2023/03/08 00:56:45;;;;;;;0.10;0.10;;;;;;;2.64;71.89;100141.25;5004323;28;20037;-82
2023/03/08 00:59:11;;;;;;;0.10;0.10;;;;;;;2.63;71.99;100136.91;5005618;28;20033;-83
2023/03/08 01:01:37;;;;;;;0.20;0.20;;;;;;;2.65;71.76;100134.28;5012705;28;20034;-81
2023/03/08 01:04:03;;;;;;;0.10;0.10;;;;;;;2.64;71.62;100137.75;5011672;28;20082;-80
2023/03/08 01:06:30;;;;;;;0.20;0.20;;;;;;;2.63;71.76;100136.91;5001048;28;20038;-81
2023/03/08 01:08:56;;;;;;;0.10;0.10;;;;;;;2.61;71.48;100127.31;5002411;28;20100;-82
2023/03/08 01:11:24;;;;;;;0.10;0.10;;;;;;;2.59;71.39;100125.56;5004724;28;20049;-81
2023/03/08 01:13:52;;;;;;;0.20;0.20;;;;;;;2.57;71.52;100129.03;5005811;28;20038;-79
2023/03/08 01:16:25;;;;;;;0.30;0.30;;;;;;;2.56;71.41;100120.31;5013362;28;20117;-82
2023/03/08 01:18:52;;;;;;;0.30;0.30;;;;;;;2.53;71.36;100114.19;5016115;28;20089;-81
2023/03/08 01:21:18;;;;;;;0.20;0.20;;;;;;;2.50;71.13;100114.22;5020190;28;20082;-81
2023/03/08 01:23:44;;;;;;;0.10;0.10;;;;;;;2.46;71.48;100113.31;5007690;28;20064;-82
2023/03/08 01:26:13;;;;;;;0.20;0.20;;;;;;;2.46;71.00;100113.31;5010328;28;20060;-82
2023/03/08 01:28:39;;;;;;;0.20;0.20;;;;;;;2.43;71.13;100097.66;5000928;28;20037;-82
2023/03/08 01:31:10;;;;;;;0.20;0.20;;;;;;;2.42;71.06;100103.75;5012616;28;20061;-82
2023/03/08 01:33:37;;;;;;;0.17;0.17;;;;;;;2.41;71.17;100102.00;5010665;28;20041;-81
2023/03/08 01:36:05;;;;;;;0.20;0.20;;;;;;;2.37;71.05;100090.66;5018736;28;20050;-81
2023/03/08 01:38:31;;;;;;;0.20;0.20;;;;;;;2.38;71.13;100094.13;5029119;28;20030;-80
2023/03/08 01:40:59;;;;;;;0.20;0.20;;;;;;;2.36;70.90;100080.19;5009484;28;20085;-79
2023/03/08 01:43:29;;;;;;;0.13;0.13;;;;;;;2.34;71.04;100079.31;5021949;28;20030;-79
2023/03/08 01:48:49;;;;;;;0.10;0.10;;;;;;;2.30;70.99;100069.75;5022035;28;20057;-79
2023/03/08 01:51:25;;;;;;;0.17;0.17;;;;;;;2.27;71.19;100070.59;5006683;28;20077;-80
2023/03/08 01:53:52;;;;;;;0.10;0.10;;;;;;;2.23;70.89;100069.72;5006269;28;20098;-80
2023/03/08 01:56:19;;;;;;;0.10;0.10;;;;;;;2.19;71.16;100075.78;5014721;28;20049;-79
2023/03/08 01:58:49;;;;;;;0.10;0.10;;;;;;;2.18;71.11;100067.97;5000632;28;20055;-80
2023/03/08 02:01:16;;;;;;;0.20;0.20;;;;;;;2.10;71.24;100063.59;4998878;28;20038;-81
2023/03/08 02:03:44;;;;;;;0.20;0.20;;;;;;;2.08;71.00;100060.13;5005464;28;20042;-80
2023/03/08 02:06:11;;;;;;;0.20;0.20;;;;;;;2.05;70.95;100060.09;5007321;28;20506;-80
2023/03/08 02:08:37;;;;;;;0.10;0.10;;;;;;;2.04;70.98;100057.47;5004691;28;20035;-79
2023/03/08 02:11:04;;;;;;;0.20;0.20;;;;;;;2.04;71.05;100062.72;4992998;28;20038;-79
2023/03/08 02:13:30;;;;;;;0.30;0.30;;;;;;;2.01;71.08;100058.34;5002617;28;20444;-80
2023/03/08 02:15:59;;;;;;;0.15;0.15;;;;;;;2.00;71.05;100047.91;4999149;28;20031;-79
2023/03/08 02:18:25;;;;;;;0.20;0.20;;;;;;;1.99;71.20;100038.31;5008570;28;20059;-81
2023/03/08 02:20:51;;;;;;;0.10;0.10;;;;;;;1.99;71.19;100040.94;5011390;28;20031;-83
2023/03/08 02:23:20;;;;;;;0.20;0.20;;;;;;;1.99;71.34;100036.56;5001757;28;20053;-79
2023/03/08 02:25:51;;;;;;;0.20;0.20;;;;;;;2.04;71.55;100036.59;4995520;28;20019;-80
2023/03/08 02:28:20;;;;;;;0.20;0.20;;;;;;;2.02;71.26;100027.84;4996725;28;20035;-80
2023/03/08 02:30:46;;;;;;;0.10;0.10;;;;;;;2.05;71.52;100027.88;5007476;28;20052;-80
2023/03/08 02:33:12;;;;;;;0.22;0.22;;;;;;;2.06;71.74;100024.41;5010555;28;20035;-79
2023/03/08 02:35:41;;;;;;;0.20;0.20;;;;;;;2.08;71.48;100025.25;4999182;28;20551;-81
2023/03/08 02:38:08;;;;;;;0.10;0.10;;;;;;;2.08;71.64;100020.03;4990261;28;20019;-80
2023/03/08 02:40:36;;;;;;;0.20;0.20;;;;;;;2.07;71.62;100018.31;4995287;28;20043;-80
2023/03/08 02:43:02;;;;;;;0.10;0.10;;;;;;;2.07;71.55;100018.31;4998518;28;20112;-80
2023/03/08 02:45:28;;;;;;;0.17;0.17;;;;;;;2.05;71.34;100023.50;4998707;28;20050;-80
2023/03/08 02:47:54;;;;;;;0.20;0.20;;;;;;;2.02;71.38;100022.63;5014157;28;20035;-80
2023/03/08 02:50:20;;;;;;;0.10;0.10;;;;;;;2.00;71.19;100019.16;5002484;28;20043;-80
2023/03/08 02:52:46;;;;;;;0.40;0.40;;;;;;;1.97;71.34;100022.66;5000946;28;20022;-80
2023/03/08 02:55:12;;;;;;;0.10;0.10;;;;;;;1.96;71.27;100027.84;5012819;28;20032;-80
2023/03/08 02:57:38;;;;;;;0.15;0.15;;;;;;;1.92;71.51;100033.06;5005631;28;20047;-80
2023/03/08 03:00:05;;;;;;;0.20;0.20;;;;;;;1.91;71.36;100025.25;4988958;28;20034;-81
2023/03/08 03:02:32;;;;;;;0.20;0.20;;;;;;;1.87;71.51;100019.13;4977214;28;20406;-82
2023/03/08 03:04:59;;;;;;;0.20;0.20;;;;;;;1.87;71.30;100011.31;4983024;28;20058;-80
2023/03/08 03:07:25;;;;;;;0.20;0.20;;;;;;;1.86;71.59;100012.16;4991230;28;20035;-78
2023/03/08 03:09:51;;;;;;;0.10;0.10;;;;;;;1.86;71.63;100001.72;4986854;28;20026;-78
2023/03/08 03:12:17;;;;;;;1.95;1.27;;;;;;;1.88;71.73;99999.09;4983231;28;20042;-77
2023/03/08 03:14:43;;;;;;;0.20;0.20;;;;;;;1.88;71.59;99999.09;4985279;28;20049;-79
2023/03/08 03:17:09;;;;;;;0.20;0.20;;;;;;;1.88;71.69;99992.16;4979855;28;20390;-80
2023/03/08 03:19:37;;;;;;;0.10;0.10;;;;;;;1.91;71.92;99986.06;4991780;28;20092;-81
2023/03/08 03:22:03;;;;;;;0.20;0.20;;;;;;;1.91;71.78;99983.44;4987250;28;20043;-81
2023/03/08 03:24:29;;;;;;;0.25;0.25;;;;;;;1.93;71.74;99977.34;4987905;28;20043;-80
2023/03/08 03:26:55;;;;;;;0.20;0.20;;;;;;;1.93;72.00;99979.97;4987049;28;20073;-79
2023/03/08 03:29:21;;;;;;;0.10;0.10;;;;;;;1.93;72.00;99971.25;4981468;28;20046;-80
2023/03/08 03:31:48;;;;;;;0.32;0.32;;;;;;;1.94;72.15;99962.53;4981831;28;20036;-80
2023/03/08 03:34:14;;;;;;;1.23;1.13;;;;;;;1.97;71.98;99961.66;5001329;28;20072;-81
2023/03/08 03:36:40;;;;;;;0.20;0.20;;;;;;;1.99;72.09;99945.13;4993955;28;20047;-81
2023/03/08 03:39:06;;;;;;;0.43;0.43;;;;;;;2.03;72.30;99943.38;5003250;28;20023;-81
2023/03/08 03:41:32;;;;;;;0.20;0.20;;;;;;;2.05;72.21;99929.44;4996472;28;20038;-82
2023/03/08 03:43:58;;;;;;;0.20;0.20;;;;;;;2.09;71.99;99930.31;4986349;28;20502;-82
2023/03/08 03:46:25;;;;;;;0.10;0.10;;;;;;;2.12;72.21;99929.44;4982468;28;20275;-78
2023/03/08 03:48:51;;;;;;;0.20;0.20;;;;;;;2.13;72.33;99926.84;4981295;28;20154;-80
2023/03/08 03:51:20;;;;;;;0.30;0.30;;;;;;;2.16;72.14;99932.06;4978326;28;20042;-80
2023/03/08 03:53:47;;;;;;;0.13;0.13;;;;;;;2.14;72.32;99932.94;4977235;28;20038;-81
2023/03/08 03:56:17;;;;;;;0.10;0.10;;;;;;;2.16;72.29;99932.06;4987724;28;20023;-80
2023/03/08 03:58:43;;;;;;;0.10;0.10;;;;;;;2.17;72.25;99939.03;4980005;28;20035;-81
2023/03/08 04:01:14;;;;;;;2.17;1.20;;;;;;;2.15;72.23;99940.78;4981503;28;20035;-82
2023/03/08 04:03:40;;;;;;;0.20;0.20;;;;;;;2.13;72.08;99934.69;5007441;28;20053;-81
2023/03/08 04:06:12;;;;;;;0.10;0.10;;;;;;;2.12;72.09;99945.13;5003103;28;20070;-81
2023/03/08 04:08:40;;;;;;;0.20;0.20;;;;;;;2.10;72.19;99930.31;4996653;28;20117;-81
2023/03/08 04:11:08;;;;;;;0.10;0.10;;;;;;;2.10;72.11;99919.84;4981387;28;20034;-81
2023/03/08 04:13:35;;;;;;;0.20;0.20;;;;;;;2.11;72.31;99912.91;5018089;28;20038;-80
2023/03/08 04:16:10;;;;;;;0.20;0.20;;;;;;;2.17;72.49;99915.53;4989196;28;20532;-81
2023/03/08 04:18:36;;;;;;;0.13;0.13;;;;;;;2.14;72.46;99912.91;4995130;28;20094;-80
2023/03/08 04:21:03;;;;;;;0.20;0.20;;;;;;;2.14;72.60;99905.06;4991352;28;20055;-78
2023/03/08 04:23:29;;;;;;;0.15;0.15;;;;;;;2.16;72.51;99900.72;5001360;28;20035;-79
2023/03/08 04:25:55;;;;;;;0.20;0.20;;;;;;;2.16;72.47;99900.72;4997718;28;20038;-80
2023/03/08 04:28:21;;;;;;;0.17;0.17;;;;;;;2.19;72.56;99894.59;4996416;28;20050;-80
2023/03/08 04:30:47;;;;;;;0.20;0.20;;;;;;;2.21;72.39;99888.50;5019284;28;20015;-79
2023/03/08 04:33:13;;;;;;;0.10;0.10;;;;;;;2.22;72.54;99881.53;4979568;28;20079;-80
2023/03/08 04:35:39;;;;;;;0.30;0.30;;;;;;;2.22;72.60;99878.94;4981971;28;20030;-82
2023/03/08 04:38:06;;;;;;;0.30;0.30;;;;;;;2.23;72.55;99860.63;4985489;28;20027;-80
2023/03/08 04:40:32;;;;;;;0.17;0.17;;;;;;;2.26;72.48;99870.22;4987672;28;20089;-80
2023/03/08 04:42:58;;;;;;;0.10;0.10;;;;;;;2.30;72.55;99860.63;4971079;28;20031;-81
2023/03/08 04:45:24;;;;;;;0.13;0.13;;;;;;;2.31;72.54;99857.13;4990563;28;20524;-81
2023/03/08 04:47:50;;;;;;;0.20;0.20;;;;;;;2.32;72.62;99854.50;4980090;28;20103;-82
2023/03/08 04:50:16;;;;;;;0.45;0.43;;;;;;;2.34;72.75;99864.97;4978029;28;20109;-80
2023/03/08 04:52:42;;;;;;;0.30;0.30;;;;;;;2.36;72.90;99865.84;4985776;28;20030;-82
2023/03/08 04:55:09;;;;;;;0.20;0.20;;;;;;;2.38;72.73;99858.84;4979743;28;20026;-82
2023/03/08 04:57:35;;;;;;;0.10;0.10;;;;;;;2.40;73.13;99844.03;4984333;28;20113;-83
2023/03/08 05:00:01;;;;;;;0.10;0.10;;;;;;;2.42;72.80;99839.69;4982557;28;20047;-81
2023/03/08 05:02:27;;;;;;;0.20;0.20;;;;;;;2.43;72.78;99836.19;4969542;28;20031;-81
2023/03/08 05:04:53;;;;;;;0.15;0.15;;;;;;;2.41;72.39;99832.72;5004880;28;20026;-81
2023/03/08 05:07:19;;;;;;;0.13;0.13;;;;;;;2.40;72.40;99830.97;5000169;28;20114;-81
2023/03/08 05:09:45;;;;;;;0.20;0.20;;;;;;;2.39;72.50;99826.59;5021626;28;20018;-81
2023/03/08 05:12:11;;;;;;;0.20;0.20;;;;;;;2.41;72.37;99830.09;4976880;28;20053;-82
2023/03/08 05:14:37;;;;;;;0.20;0.20;;;;;;;2.41;72.46;99817.03;4990405;28;20481;-82
2023/03/08 05:17:03;;;;;;;0.20;0.20;;;;;;;2.41;72.46;99817.88;4972685;28;20035;-81
2023/03/08 05:19:29;;;;;;;0.10;0.10;;;;;;;2.37;72.16;99816.16;4986456;28;20422;-83
2023/03/08 05:21:55;;;;;;;0.10;0.10;;;;;;;2.40;72.43;99804.81;5003634;28;20034;-82
2023/03/08 05:24:21;;;;;;;0.10;0.10;;;;;;;2.42;72.50;99803.94;5031291;28;20056;-81
2023/03/08 05:26:47;;;;;;;0.10;0.10;;;;;;;2.43;72.31;99795.22;4974647;28;20042;-81
2023/03/08 05:29:13;;;;;;;0.20;0.20;;;;;;;2.47;72.52;99790.84;4994599;28;20057;-82
2023/03/08 05:31:42;;;;;;;0.10;0.10;;;;;;;2.50;72.62;99769.06;4984652;28;20037;-82
2023/03/08 05:34:10;;;;;;;0.17;0.17;;;;;;;2.54;72.70;99766.44;4990112;28;20024;-80
2023/03/08 05:36:37;;;;;;;0.10;0.10;;;;;;;2.53;72.79;99758.56;4999674;28;20031;-81
2023/03/08 05:39:05;;;;;;;0.13;0.13;;;;;;;2.54;72.67;99761.19;4990267;28;20076;-81
2023/03/08 05:41:31;;;;;;;0.20;0.20;;;;;;;2.54;72.73;99755.97;4997460;28;20379;-81
2023/03/08 05:44:00;;;;;;;0.13;0.13;;;;;;;2.56;72.46;99759.41;4969717;28;20054;-82
2023/03/08 05:46:26;;;;;;;0.13;0.13;;;;;;;2.54;72.58;99753.34;4977960;28;20120;-83
2023/03/08 05:48:52;;;;;;;0.30;0.30;;;;;;;2.55;72.26;99752.44;4971526;28;20023;-82
2023/03/08 05:51:18;;;;;;;0.45;0.45;;;;;;;2.56;72.60;99745.50;4972219;28;20035;-81
2023/03/08 05:53:45;;;;;;;0.10;0.10;;;;;;;2.55;72.47;99752.44;4971910;28;20055;-79
2023/03/08 05:58:47;;;;;;;0.10;0.10;;;;;;;2.54;72.60;99735.03;5124201;27;20383;-80
2023/03/08 06:03:55;;;;;;;0.13;0.13;;;;;;;2.56;72.49;99733.28;5104948;27;1165624;-81
2023/03/08 06:06:24;;;;;;;0.20;0.20;;;;;;;2.56;72.55;99729.81;5104570;28;20285;-81
2023/03/08 06:08:50;;;;;;;0.10;0.10;;;;;;;2.57;72.67;99721.94;5114439;28;20074;-81
2023/03/08 06:11:16;;;;;;;0.20;0.20;;;;;;;2.60;72.66;99723.66;5118181;28;20020;-83
2023/03/08 06:13:43;;;;;;;1.02;1.02;;;;;;;2.61;72.81;99732.41;5113058;28;20056;-82
2023/03/08 06:16:09;;;;;;;0.22;0.22;;;;;;;2.63;72.51;99728.00;5115054;28;20035;-81
2023/03/08 06:18:38;;;;;;;0.35;0.35;;;;;;;2.65;72.74;99728.88;5123047;28;20398;-82
2023/03/08 06:23:40;;;;;;;0.17;0.17;;;;;;;2.63;72.34;99730.63;5110782;27;20403;-80
2023/03/08 06:26:08;;;;;;;0.20;0.20;;;;;;;2.64;72.65;99737.59;5099132;28;20028;-81
2023/03/08 06:28:34;;;;;;;0.20;0.20;;;;;;;2.67;72.65;99737.59;5095589;28;20123;-82
2023/03/08 06:31:01;;;;;;;0.20;0.20;;;;;;;2.68;72.65;99734.97;5089174;28;20036;-82
2023/03/08 06:33:29;;;;;;;0.30;0.30;;;;;;;2.70;72.67;99735.81;5088926;28;20436;-82
2023/03/08 06:36:02;;;;;;;1.48;1.48;;;;;;;2.73;72.59;99734.94;5086970;28;20036;-82
2023/03/08 06:38:30;;;;;;;0.85;0.85;;;;;;;2.75;72.64;99733.16;5087321;28;20048;-83
2023/03/08 06:40:57;;;;;;;0.13;0.13;;;;;;;2.76;73.02;99724.44;5089489;28;20043;-82
2023/03/08 06:43:24;;;;;;;0.10;0.10;;;;;;;2.77;72.96;99723.56;5090650;28;20017;-82
2023/03/08 06:45:50;;;;;;;0.20;0.20;;;;;;;2.76;72.83;99729.69;5092004;28;20035;-83
2023/03/08 06:48:16;;;;;;;0.20;0.20;;;;;;;2.78;72.77;99722.72;5091069;28;20024;-81
2023/03/08 06:50:42;;;;;;;0.40;0.40;;;;;;;2.81;72.75;99722.66;5086982;28;20047;-81
2023/03/08 06:53:11;;;;;;;0.20;0.20;;;;;;;2.84;72.99;99724.41;5086826;28;20082;-82
2023/03/08 06:55:39;;;;;;;0.20;0.20;;;;;;;2.85;72.69;99718.28;5086434;28;20040;-80
2023/03/08 06:58:06;;;;;;;0.20;0.20;;;;;;;2.85;72.55;99713.91;5088916;28;20078;-82
2023/03/08 07:00:33;;;;;;;0.55;0.55;;;;;;;2.87;72.51;99706.94;5081146;28;20039;-79
2023/03/08 07:03:00;;;;;;;0.15;0.15;;;;;;;2.90;72.57;99712.16;5086950;28;20032;-81
2023/03/08 07:05:26;;;;;;;0.20;0.20;;;;;;;2.92;72.44;99712.16;5079848;28;20074;-80
2023/03/08 07:07:53;;;;;;;0.70;0.68;;;;;;;2.95;72.85;99703.41;5087420;28;20437;-82
2023/03/08 07:10:20;;;;;;;0.22;0.22;;;;;;;2.95;72.30;99699.03;5082980;28;20131;-81
2023/03/08 07:12:50;;;;;;;0.20;0.20;;;;;;;2.95;72.74;99698.16;5084991;28;20483;-81
2023/03/08 07:15:19;;;;;;;0.15;0.15;;;;;;;2.94;72.62;99701.66;5082686;28;20024;-82
2023/03/08 07:17:46;;;;;;;0.20;0.20;;;;;;;2.88;72.56;99703.44;5083428;28;20028;-82
2023/03/08 07:20:13;;;;;;;0.20;0.20;;;;;;;2.91;72.21;99698.19;5086453;28;20032;-80
2023/03/08 07:22:42;;;;;;;0.17;0.17;;;;;;;2.94;72.58;99699.03;5082699;28;20651;-82
2023/03/08 07:25:11;;;;;;;0.20;0.20;;;;;;;2.94;72.40;99699.03;5080459;28;20032;-86
2023/03/08 07:27:37;;;;;;;0.82;0.82;;;;;;;2.95;72.75;99698.16;5079757;28;21836;-82
2023/03/08 07:30:03;;;;;;;0.15;0.15;;;;;;;2.95;72.39;99699.03;5085270;28;20060;-84
2023/03/08 07:32:30;;;;;;;0.20;0.20;;;;;;;2.95;72.92;99688.56;5087968;28;20123;-80
2023/03/08 07:34:57;;;;;;;1.77;1.67;;;;;;;2.99;72.82;99690.28;5086520;28;20177;-81
2023/03/08 07:37:23;;;;;;;1.75;1.65;;;;;;;3.01;72.39;99690.28;5089714;28;20044;-82
2023/03/08 07:39:49;;;;;;;0.15;0.15;;;;;;;3.01;72.35;99685.03;5081082;28;20078;-80
2023/03/08 07:42:16;;;;;;;0.30;0.30;;;;;;;3.01;72.34;99679.81;5085394;28;20016;-81
2023/03/08 07:44:42;;;;;;;0.73;0.73;;;;;;;3.04;72.94;99671.91;5078594;28;20036;-81
2023/03/08 07:47:08;;;;;;;0.52;0.52;;;;;;;3.05;72.65;99681.50;5077066;28;20047;-81
2023/03/08 07:49:34;;;;;;;0.22;0.22;;;;;;;3.08;72.59;99671.88;5080564;28;20024;-82
2023/03/08 07:52:01;;;;;;;0.10;0.10;;;;;;;3.11;72.63;99673.63;5069511;28;20036;-81
2023/03/08 07:54:27;;;;;;;0.30;0.30;;;;;;;3.12;72.50;99675.34;5073587;28;20029;-82
2023/03/08 07:56:54;;;;;;;0.10;0.10;;;;;;;3.15;72.72;99672.69;5075397;28;20039;-81
2023/03/08 07:59:22;;;;;;;0.10;0.10;;;;;;;3.16;72.34;99677.06;5075354;28;20024;-82
2023/03/08 08:01:48;;;;;;;0.22;0.22;;;;;;;3.19;72.65;99677.03;5074278;28;20024;-82
2023/03/08 08:04:15;;;;;;;0.20;0.20;;;;;;;3.23;72.81;99676.13;5076614;28;20043;-82
2023/03/08 08:06:41;;;;;;;0.40;0.40;;;;;;;3.29;72.65;99675.22;5099657;28;20044;-82
2023/03/08 08:09:11;;;;;;;0.57;0.55;;;;;;;3.30;72.29;99663.88;5091714;28;20016;-81
2023/03/08 08:11:37;;;;;;;0.22;0.22;;;;;;;3.30;72.40;99657.75;5086324;28;20032;-81
2023/03/08 08:14:04;;;;;;;0.75;0.75;;;;;;;3.32;72.54;99658.59;5076453;28;20065;-81
2023/03/08 08:16:30;;;;;;;0.10;0.10;;;;;;;3.33;72.50;99662.97;5080336;28;20507;-82
2023/03/08 08:18:56;;;;;;;0.10;0.10;;;;;;;3.31;72.42;99659.50;5082412;28;20028;-82
2023/03/08 08:21:22;;;;;;;0.52;0.52;;;;;;;3.31;72.44;99654.25;5082400;28;20040;-84
2023/03/08 08:23:48;;;;;;;0.25;0.25;;;;;;;3.33;72.10;99652.50;5077134;28;20044;-82
2023/03/08 08:26:17;;;;;;;0.20;0.20;;;;;;;3.35;72.14;99651.59;5079994;28;20510;-82
2023/03/08 08:28:46;;;;;;;0.30;0.30;;;;;;;3.31;72.27;99654.25;5081459;28;20036;-83
2023/03/08 08:31:15;;;;;;;1.00;1.00;;;;;;;3.35;72.53;99642.84;5087234;28;20027;-82
2023/03/08 08:33:41;;;;;;;0.25;0.25;;;;;;;3.36;72.49;99648.06;5087522;28;20549;-84
2023/03/08 08:36:11;;;;;;;0.55;0.55;;;;;;;3.40;72.49;99652.41;5086926;28;20407;-84
2023/03/08 08:38:39;;;;;;;0.20;0.20;;;;;;;3.44;72.66;99645.41;5078838;28;20043;-84
2023/03/08 08:41:06;;;;;;;0.20;0.20;;;;;;;3.46;72.23;99651.47;5091731;28;20035;-83
2023/03/08 08:43:34;;;;;;;0.10;0.10;;;;;;;3.47;72.05;99649.75;5096370;28;20055;-83
2023/03/08 08:46:02;;;;;;;0.20;0.20;;;;;;;3.48;71.89;99644.47;5078990;28;20034;-84
2023/03/08 08:48:28;;;;;;;0.30;0.30;;;;;;;3.48;72.38;99636.63;5073906;28;20488;-83
2023/03/08 08:50:56;;;;;;;0.10;0.10;;;;;;;3.46;72.26;99627.91;5084794;28;20028;-82
2023/03/08 08:53:22;;;;;;;0.68;0.68;;;;;;;3.45;71.95;99631.44;5083081;28;20102;-84
2023/03/08 08:55:48;;;;;;;0.20;0.20;;;;;;;3.46;72.14;99622.66;5073611;28;20033;-84
2023/03/08 08:58:14;;;;;;;1.13;1.10;;;;;;;3.49;71.90;99633.13;5075444;28;20039;-80
2023/03/08 09:00:41;;;;;;;0.20;0.20;;;;;;;3.51;72.03;99626.09;5075652;28;20036;-83
2023/03/08 09:03:07;;;;;;;0.30;0.30;;;;;;;3.51;71.98;99620.84;5074029;28;20033;-83
2023/03/08 09:05:36;;;;;;;0.40;0.40;;;;;;;3.55;72.54;99614.72;5076170;28;20056;-84
2023/03/08 09:08:02;;;;;;;0.10;0.10;;;;;;;3.56;72.25;99607.72;5076498;28;20032;-83
2023/03/08 09:10:31;;;;;;;0.20;0.20;;;;;;;3.59;72.07;99607.69;5070390;28;20025;-82
2023/03/08 09:12:58;;;;;;;1.38;1.38;;;;;;;3.62;72.43;99597.19;5077606;28;20024;-80
2023/03/08 09:15:25;;;;;;;0.13;0.13;;;;;;;3.65;72.17;99602.41;5078587;28;20020;-83
2023/03/08 09:17:51;;;;;;;0.10;0.10;;;;;;;3.70;72.38;99594.47;5070598;28;20400;-85
2023/03/08 09:20:18;;;;;;;0.10;0.10;;;;;;;3.78;72.08;99587.38;5072157;28;20035;-81
2023/03/08 09:22:45;;;;;;;0.20;0.20;;;;;;;3.86;72.18;99575.06;5078280;28;20029;-84
2023/03/08 09:25:11;;;;;;;0.13;0.13;;;;;;;3.96;72.37;99569.69;5077174;28;20037;-80
2023/03/08 09:27:39;;;;;;;0.20;0.20;;;;;;;4.03;72.09;99566.09;5072598;28;20039;-82
2023/03/08 09:30:10;;;;;;;0.40;0.40;;;;;;;4.20;72.42;99564.09;5073520;28;20483;-80
2023/03/08 09:32:37;;;;;;;0.20;0.20;;;;;;;4.35;72.46;99562.16;5073587;28;20483;-81
2023/03/08 09:35:04;;;;;;;0.63;0.63;;;;;;;4.52;72.54;99556.63;5073754;28;20158;-82
2023/03/08 09:37:30;;;;;;;10.55;1.60;;;;;;;4.65;71.92;99554.69;5074192;28;20031;-81
2023/03/08 09:39:56;;;;;;;0.20;0.20;;;;;;;4.76;71.76;99560.63;5075608;28;20510;-81
2023/03/08 09:42:27;;;;;;;0.20;0.20;;;;;;;4.82;71.45;99557.91;5077342;28;20017;-81
2023/03/08 09:47:49;;;;;;;0.15;0.15;;;;;;;4.91;70.92;99561.25;5122420;27;1183524;-78
2023/03/08 09:50:40;;;;;;;1.02;1.00;;;;;;;4.94;70.83;99555.94;5133142;28;20044;-83
2023/03/08 09:56:13;;;;;;;0.82;0.82;;;;;;;4.94;70.59;99566.44;5116576;27;1155117;-81
2023/03/08 09:58:49;;;;;;;0.63;0.63;;;;;;;4.95;70.32;99578.69;5124548;28;20058;-81
2023/03/08 10:01:26;;;;;;;0.10;0.10;;;;;;;4.96;70.64;99564.66;5112769;28;20093;-82
2023/03/08 10:04:14;;;;;;;0.22;0.22;;;;;;;5.02;70.43;99556.66;5114929;28;20024;-81
2023/03/08 10:06:53;;;;;;;0.10;0.10;;;;;;;5.06;70.29;99554.84;5119101;28;20156;-82
2023/03/08 10:09:35;;;;;;;0.10;0.10;;;;;;;5.08;70.09;99561.81;5104687;28;20482;-82
2023/03/08 10:14:44;;;;;;;0.15;0.15;;;;;;;5.21;69.76;99564.19;5118200;27;20403;-84
2023/03/08 10:17:17;;;;;;;0.10;0.10;;;;;;;5.26;69.49;99543.97;5101330;28;20043;-84
2023/03/08 10:19:54;;;;;;;0.55;0.55;;;;;;;5.30;69.52;99533.38;5097358;28;20042;-83
2023/03/08 10:25:13;;;;;;;0.10;0.10;;;;;;;5.42;69.67;99526.16;5004935;28;20397;-83
2023/03/08 10:27:39;;;;;;;0.10;0.10;;;;;;;5.49;69.53;99514.63;4993877;28;20031;-82
2023/03/08 10:30:14;;;;;;;0.20;0.20;;;;;;;5.61;69.33;99508.28;4987224;28;20039;-82
2023/03/08 10:32:43;;;;;;;0.10;0.10;;;;;;;5.63;69.17;99499.47;4992596;28;20019;-82
2023/03/08 10:35:09;;;;;;;0.47;0.47;;;;;;;5.71;69.33;99495.78;5001173;28;20038;-82
2023/03/08 10:37:35;;;;;;;0.30;0.30;;;;;;;5.73;68.88;99505.38;4993906;28;20027;-82
2023/03/08 10:40:15;;;;;;;1.27;0.57;;;;;;;5.80;68.22;99504.31;4991561;28;20042;-81
2023/03/08 10:42:47;;;;;;;0.45;0.45;;;;;;;5.76;68.55;99510.56;4992414;28;20095;-83
2023/03/08 10:45:20;;;;;;;0.55;0.55;;;;;;;5.82;68.43;99520.09;4993475;28;20070;-82
2023/03/08 10:50:35;;;;;;;0.13;0.13;;;;;;;5.95;68.41;99528.56;5016731;27;4087283;-83
2023/03/08 10:53:15;;;;;;;0.10;0.10;;;;;;;6.01;67.78;99524.94;5138183;27;20031;-84
2023/03/08 10:55:46;;;;;;;1.27;1.17;;;;;;;6.03;68.22;99528.41;5128112;27;20092;-83
2023/03/08 11:04:17;;;;;;;0.10;0.10;;;;;;;6.03;66.92;99529.28;5084382;27;20414;-81
2023/03/08 11:06:43;;;;;;;0.20;0.20;;;;;;;6.00;67.33;99526.72;5060569;28;20088;-80
2023/03/08 11:09:28;;;;;;;0.10;0.10;;;;;;;6.18;67.44;99517.56;5053403;28;20057;-80
2023/03/08 11:11:57;;;;;;;0.10;0.10;;;;;;;6.26;68.07;99504.22;5056674;28;20028;-84
2023/03/08 11:14:25;;;;;;;0.98;0.98;;;;;;;6.40;68.10;99502.09;5053307;28;20163;-83
2023/03/08 11:17:20;;;;;;;0.20;0.20;;;;;;;6.62;67.21;99496.31;5057889;28;20029;-83
2023/03/08 11:20:09;;;;;;;0.20;0.20;;;;;;;6.69;68.35;99492.66;5060672;28;20029;-83
2023/03/08 11:22:48;;;;;;;0.55;0.55;;;;;;;6.75;67.39;99492.47;5069782;28;20035;-83
2023/03/08 11:25:43;;;;;;;0.10;0.10;;;;;;;6.86;66.72;99489.53;5061401;28;20040;-85
2023/03/08 11:28:24;;;;;;;0.20;0.20;;;;;;;6.85;66.46;99490.44;5055491;28;20029;-86
2023/03/08 11:31:11;;;;;;;0.20;0.20;;;;;;;6.86;66.75;99489.53;5054864;28;20037;-82
2023/03/08 11:36:30;;;;;;;0.10;0.10;;;;;;;6.70;65.24;99486.44;5103778;27;20381;-83
2023/03/08 11:39:08;;;;;;;0.20;0.20;;;;;;;6.65;64.92;99472.53;5083998;28;20047;-82
2023/03/08 11:45:12;;;;;;;0.83;0.83;;;;;;;6.82;65.34;99451.06;5119430;27;1156350;-80
2023/03/08 11:50:52;;;;;;;0.20;0.20;;;;;;;7.28;67.91;99439.22;5110767;27;20410;-84
2023/03/08 11:56:27;;;;;;;0.10;0.10;;;;;;;7.94;65.42;99415.25;5063859;28;20146;-83
2023/03/08 12:01:40;;;;;;;0.13;0.13;;;;;;;8.12;63.94;99439.31;5060216;28;20139;-83
2023/03/08 12:04:12;;;;;;;0.10;0.10;;;;;;;8.05;62.63;99451.84;5055460;28;20060;-83
2023/03/08 12:06:41;;;;;;;3.42;1.25;;;;;;;7.95;61.81;99455.69;5054609;28;20032;-83
2023/03/08 12:11:48;;;;;;;0.57;0.57;;;;;;;7.49;61.66;99457.06;5106886;27;1154966;-84
2023/03/08 12:14:21;;;;;;;0.10;0.10;;;;;;;7.56;62.00;99469.16;5131542;28;20049;-82
2023/03/08 12:16:55;;;;;;;0.40;0.40;;;;;;;7.47;62.56;99478.22;5107599;28;20020;-83
2023/03/08 12:28:22;;;;;;;0.47;0.47;;;;;;;6.93;62.61;99463.94;5065863;28;20385;-83
2023/03/08 12:33:36;;;;;;;0.20;0.20;;;;;;;6.90;63.18;99446.44;5113151;27;1151300;-84
2023/03/08 12:36:05;;;;;;;0.35;0.35;;;;;;;6.88;62.67;99434.22;5121920;28;20297;-83
2023/03/08 12:38:35;;;;;;;0.10;0.10;;;;;;;6.90;63.93;99441.19;5130614;27;20027;-83
2023/03/08 12:41:02;;;;;;;0.10;0.10;;;;;;;6.92;63.45;99439.34;5125330;28;20414;-83
2023/03/08 12:43:32;;;;;;;0.10;0.10;;;;;;;6.89;62.99;99441.19;5118911;27;20027;-84